Time;durP1;ratioP1;P1;durP2;ratioP2;P2;SDS_P1;SDS_P2;PMS_P1;PMS_P2;Temp;Humidity;BMP_temperature;BMP_pressure;BME280_temperature;BME280_humidity;BME280_pressure;Samples;Min_cycle;Max_cycle;Signal;HPM_P1;HPM_P2
2021/12/12 00:02:24;;;;;;;55.10;19.60;;;;;;;-6.08;97.71;100366.05;99883;1339;73579;-68
2021/12/12 00:05:20;;;;;;;70.60;24.50;;;;;;;-6.10;97.50;100362.77;99642;1342;68355;-68
2021/12/12 00:08:11;;;;;;;73.30;23.60;;;;;;;-6.11;97.61;100366.95;99652;1340;71772;-69
2021/12/12 00:11:10;;;;;;;44.30;16.30;;;;;;;-6.11;97.35;100369.86;99675;1344;59773;-69
2021/12/12 00:14:19;;;;;;;60.30;19.30;;;;;;;-6.12;97.58;100367.45;99692;1340;59737;-69
2021/12/12 00:17:10;;;;;;;54.30;19.70;;;;;;;-6.13;97.43;100372.99;100002;1340;73543;-69
2021/12/12 00:19:59;;;;;;;53.70;18.90;;;;;;;-6.15;97.18;100376.64;99756;1339;68405;-69
2021/12/12 00:22:49;;;;;;;47.50;16.50;;;;;;;-6.19;97.24;100379.23;99807;1342;71621;-69
2021/12/12 00:25:51;;;;;;;52.30;19.40;;;;;;;-6.23;97.12;100379.08;99816;1339;59809;-69
2021/12/12 00:28:41;;;;;;;59.40;20.20;;;;;;;-6.27;97.33;100377.71;99219;1339;1003169;-69
2021/12/12 00:31:31;;;;;;;80.80;25.90;;;;;;;-6.28;97.30;100377.71;99070;1340;1003786;-69
2021/12/12 00:34:20;;;;;;;83.90;26.30;;;;;;;-6.25;97.42;100378.23;99831;1342;68390;-69
2021/12/12 00:37:10;;;;;;;67.20;22.40;;;;;;;-6.20;97.82;100374.41;99988;1343;71681;-70
2021/12/12 00:40:23;;;;;;;54.80;20.60;;;;;;;-6.11;97.78;100383.52;99744;1343;59870;-69
2021/12/12 00:43:35;;;;;;;46.80;17.30;;;;;;;-6.06;97.73;100388.34;99957;1333;59795;-69
2021/12/12 00:46:25;;;;;;;42.40;15.10;;;;;;;-6.00;97.50;100392.80;99931;1340;73279;-69
2021/12/12 00:49:15;;;;;;;48.60;17.70;;;;;;;-5.96;97.48;100393.96;99896;1334;67269;-69
2021/12/12 00:52:10;;;;;;;56.00;17.30;;;;;;;-5.90;97.94;100397.38;99172;1339;1003132;-69
2021/12/12 00:55:00;;;;;;;43.60;16.40;;;;;;;-5.85;97.91;100397.70;99901;1344;59757;-69
2021/12/12 00:57:53;;;;;;;50.60;18.70;;;;;;;-5.80;97.64;100398.20;99543;1343;59693;-69
2021/12/12 01:00:50;;;;;;;65.30;20.30;;;;;;;-5.72;97.95;100402.66;99824;1339;73863;-69
2021/12/12 01:03:59;;;;;;;52.20;18.60;;;;;;;-5.62;97.80;100399.14;99207;1340;1003586;-69
2021/12/12 01:06:52;;;;;;;44.00;16.80;;;;;;;-5.51;97.53;100394.23;99976;1341;70843;-69
2021/12/12 01:09:51;;;;;;;45.10;15.90;;;;;;;-5.44;97.14;100391.05;99737;1339;59738;-69
2021/12/12 01:12:52;;;;;;;49.90;15.80;;;;;;;-5.37;97.35;100390.67;99758;1339;60758;-69
2021/12/12 01:16:04;;;;;;;41.90;14.20;;;;;;;-5.31;97.48;100397.02;99170;1339;1003173;-69
2021/12/12 01:19:22;;;;;;;44.10;14.80;;;;;;;-5.26;97.16;100400.80;100037;1343;68142;-69
2021/12/12 01:22:22;;;;;;;45.00;16.30;;;;;;;-5.19;97.31;100397.98;99925;1343;73072;-69
2021/12/12 01:25:32;;;;;;;53.70;20.30;;;;;;;-5.09;97.62;100403.27;99927;1339;59893;-70
2021/12/12 01:28:30;;;;;;;51.20;18.40;;;;;;;-4.99;98.10;100401.27;100022;1339;60657;-69
2021/12/12 01:31:24;;;;;;;46.40;18.00;;;;;;;-4.87;98.25;100395.47;99932;1343;73176;-68
2021/12/12 01:34:25;;;;;;;41.50;15.80;;;;;;;-4.74;97.77;100398.98;99858;1340;67045;-69
2021/12/12 01:37:35;;;;;;;44.70;15.90;;;;;;;-4.65;97.38;100405.65;99977;1339;72212;-68
2021/12/12 01:40:26;;;;;;;32.80;12.60;;;;;;;-4.59;97.19;100406.10;99785;1339;59716;-68
2021/12/12 01:43:21;;;;;;;40.30;15.40;;;;;;;-4.54;97.30;100398.96;99734;1342;59813;-68
2021/12/12 01:46:35;;;;;;;46.80;17.20;;;;;;;-4.51;97.15;100395.98;99748;1343;73346;-68
2021/12/12 01:49:26;;;;;;;46.80;17.40;;;;;;;-4.44;97.02;100394.52;100070;1340;66957;-69
2021/12/12 01:52:20;;;;;;;43.70;16.60;;;;;;;-4.38;97.12;100387.00;99956;1340;71646;-68
2021/12/12 01:55:26;;;;;;;39.60;15.60;;;;;;;-4.31;97.32;100386.05;99969;1339;59679;-69
2021/12/12 01:58:21;;;;;;;38.80;16.00;;;;;;;-4.29;96.40;100386.73;99800;1340;60748;-69
2021/12/12 02:01:26;;;;;;;27.70;11.00;;;;;;;-4.31;95.96;100387.42;99724;1339;73629;-68
2021/12/12 02:04:30;;;;;;;51.50;18.40;;;;;;;-4.33;96.00;100391.27;99860;1343;68025;-68
2021/12/12 02:07:27;;;;;;;51.60;18.50;;;;;;;-4.30;95.76;100390.55;99644;1340;71614;-69
2021/12/12 02:10:27;;;;;;;35.90;13.40;;;;;;;-4.26;95.98;100392.05;99762;1336;59841;-69
2021/12/12 02:13:21;;;;;;;42.30;14.80;;;;;;;-4.22;96.38;100393.92;100195;1337;60956;-69
2021/12/12 02:16:11;;;;;;;40.30;16.40;;;;;;;-4.22;96.08;100392.54;99742;1340;72748;-69
2021/12/12 02:19:01;;;;;;;43.70;17.00;;;;;;;-4.19;96.78;100393.37;99721;1340;67658;-69
2021/12/12 02:22:10;;;;;;;50.30;20.10;;;;;;;-4.14;96.99;100396.23;99738;1339;73162;-69
2021/12/12 02:37:48;;;;;;;32.50;11.70;;;;;;;-4.23;94.47;100400.00;99084;1340;1003919;-69
2021/12/12 02:40:44;;;;;;;56.20;20.20;;;;;;;-4.29;94.58;100403.36;99231;1343;1003879;-69
2021/12/12 02:43:41;;;;;;;56.80;20.10;;;;;;;-4.32;94.84;100409.98;99859;1339;59859;-69
2021/12/12 02:46:36;;;;;;;51.80;20.30;;;;;;;-4.32;94.87;100415.86;99905;1345;70839;-69
2021/12/12 02:49:41;;;;;;;48.60;18.10;;;;;;;-4.28;94.99;100417.91;99793;1341;68922;-69
2021/12/12 02:52:34;;;;;;;37.20;13.90;;;;;;;-4.25;95.04;100422.90;100021;1343;73029;-69
2021/12/12 02:55:34;;;;;;;43.00;15.50;;;;;;;-4.24;95.20;100427.23;99032;1339;1003930;-69
2021/12/12 02:58:26;;;;;;;40.70;16.00;;;;;;;-4.27;95.00;100433.83;99754;1343;60752;-69
2021/12/12 03:01:22;;;;;;;43.10;15.50;;;;;;;-4.29;95.63;100432.64;99003;1341;1003025;-70
2021/12/12 03:04:13;;;;;;;54.70;19.70;;;;;;;-4.29;95.29;100434.04;100112;1341;68260;-69
2021/12/12 03:07:10;;;;;;;55.40;19.70;;;;;;;-4.24;95.96;100436.06;99708;1340;73448;-69
2021/12/12 03:10:06;;;;;;;56.10;18.30;;;;;;;-4.20;96.34;100433.41;99678;1340;59866;-70
2021/12/12 03:12:55;;;;;;;47.80;16.70;;;;;;;-4.13;96.36;100434.36;99674;1343;61191;-70
2021/12/12 03:15:47;;;;;;;44.00;14.60;;;;;;;-4.08;96.19;100432.07;99677;1343;73804;-69
2021/12/12 03:18:42;;;;;;;43.30;16.10;;;;;;;-4.06;96.42;100429.27;99922;1336;68308;-70
2021/12/12 03:21:37;;;;;;;41.10;15.20;;;;;;;-4.04;96.50;100433.77;100005;1340;73304;-70
2021/12/12 03:24:28;;;;;;;44.40;16.00;;;;;;;-4.03;96.49;100434.27;99113;1344;1003440;-68
2021/12/12 03:27:20;;;;;;;39.00;14.30;;;;;;;-4.02;96.60;100435.80;99004;1340;1003142;-69
2021/12/12 03:30:10;;;;;;;44.60;15.30;;;;;;;-4.01;96.94;100435.95;99690;1343;73831;-69
2021/12/12 03:33:00;;;;;;;68.40;22.40;;;;;;;-3.96;97.16;100429.85;99767;1340;68291;-68
2021/12/12 03:35:54;;;;;;;58.30;22.10;;;;;;;-3.89;97.55;100433.06;99681;1343;73544;-69
2021/12/12 03:38:51;;;;;;;55.90;21.50;;;;;;;-3.82;97.40;100429.31;99694;1340;59863;-69
2021/12/12 03:41:41;;;;;;;47.20;17.20;;;;;;;-3.72;97.80;100426.23;99965;1342;59695;-69
2021/12/12 03:44:34;;;;;;;39.80;16.00;;;;;;;-3.64;97.62;100431.52;99775;1344;73672;-68
2021/12/12 03:47:33;;;;;;;35.80;15.20;;;;;;;-3.57;97.75;100432.80;99744;1343;66980;-69
2021/12/12 03:50:31;;;;;;;40.20;14.70;;;;;;;-3.51;97.44;100431.16;100119;1340;73480;-69
2021/12/12 03:53:21;;;;;;;41.60;15.50;;;;;;;-3.47;97.65;100431.63;100039;1341;59763;-69
2021/12/12 03:56:14;;;;;;;31.10;12.10;;;;;;;-3.44;97.51;100428.45;99788;1340;59817;-68
2021/12/12 03:59:03;;;;;;;44.50;16.50;;;;;;;-3.43;97.68;100433.13;99784;1342;72036;-69
2021/12/12 04:01:54;;;;;;;60.60;21.50;;;;;;;-3.40;97.64;100430.50;99726;1343;68525;-69
2021/12/12 04:04:46;;;;;;;55.00;20.10;;;;;;;-3.33;97.81;100427.97;98969;1340;1003063;-69
2021/12/12 04:07:36;;;;;;;52.60;20.30;;;;;;;-3.27;97.68;100429.59;99699;1342;60378;-69
2021/12/12 04:10:25;;;;;;;50.60;17.60;;;;;;;-3.20;97.78;100434.36;99807;1344;59751;-69
2021/12/12 04:13:14;;;;;;;45.20;17.10;;;;;;;-3.14;97.37;100433.92;99630;1342;73540;-69
2021/12/12 04:16:04;;;;;;;40.10;14.60;;;;;;;-3.11;97.29;100433.36;99651;1343;67426;-69
2021/12/12 04:18:54;;;;;;;36.40;13.40;;;;;;;-3.09;97.16;100433.85;99866;1342;73090;-69
2021/12/12 04:21:43;;;;;;;41.80;16.00;;;;;;;-3.09;97.23;100435.05;99977;1344;59877;-69
2021/12/12 04:24:39;;;;;;;39.30;14.90;;;;;;;-3.09;97.23;100441.32;99727;1344;59772;-69
2021/12/12 04:27:29;;;;;;;46.20;18.20;;;;;;;-3.08;97.37;100439.56;99328;1340;1003541;-69
2021/12/12 04:30:19;;;;;;;66.60;23.60;;;;;;;-3.05;97.29;100440.23;99669;1344;66947;-69
2021/12/12 04:33:08;;;;;;;54.50;21.50;;;;;;;-3.02;97.07;100436.85;99759;1344;73160;-69
2021/12/12 04:35:56;;;;;;;51.80;19.50;;;;;;;-2.96;97.16;100432.79;99782;1342;59859;-69
2021/12/12 04:38:46;;;;;;;45.40;18.50;;;;;;;-2.93;96.88;100432.02;99671;1342;60434;-69
2021/12/12 04:41:36;;;;;;;47.10;19.80;;;;;;;-2.90;96.67;100429.72;99630;1337;73639;-69
2021/12/12 04:44:35;;;;;;;41.50;16.40;;;;;;;-2.89;96.55;100430.05;99743;1336;67529;-69
2021/12/12 04:51:09;;;;;;;43.50;17.70;;;;;;;-2.90;96.29;100440.14;99210;1342;1003930;-69
2021/12/12 04:54:24;;;;;;;43.50;18.40;;;;;;;-2.88;96.06;100440.47;99767;1345;59653;-69
2021/12/12 04:57:35;;;;;;;38.40;14.20;;;;;;;-2.90;95.91;100445.01;99470;1337;1003079;-69
2021/12/12 05:00:52;;;;;;;36.50;14.90;;;;;;;-2.94;95.47;100444.38;100131;1344;66708;-69
2021/12/12 05:04:06;;;;;;;57.70;20.50;;;;;;;-2.98;95.37;100450.70;99942;1339;72811;-70
2021/12/12 05:07:16;;;;;;;62.90;22.50;;;;;;;-2.99;95.68;100454.88;99767;1343;60980;-70
2021/12/12 05:11:05;;;;;;;51.20;20.50;;;;;;;-3.00;95.56;100458.02;100278;1343;60860;-70
2021/12/12 05:14:05;;;;;;;44.90;17.80;;;;;;;-3.00;95.15;100463.92;99529;1345;74466;-69
2021/12/12 05:17:10;;;;;;;52.90;19.10;;;;;;;-3.06;94.73;100462.27;99413;1352;69132;-69
2021/12/12 05:20:05;;;;;;;46.70;18.20;;;;;;;-3.16;94.53;100464.34;99344;1352;73768;-70
2021/12/12 05:22:58;;;;;;;42.90;16.40;;;;;;;-3.26;94.66;100467.24;99157;1348;59825;-69
2021/12/12 05:25:53;;;;;;;41.70;16.50;;;;;;;-3.38;94.78;100468.98;99416;1345;59793;-69
2021/12/12 05:28:49;;;;;;;46.30;17.70;;;;;;;-3.53;95.20;100470.58;99470;1348;73759;-69
2021/12/12 05:31:40;;;;;;;69.50;22.00;;;;;;;-3.65;95.36;100469.69;99112;1346;67636;-69
2021/12/12 05:34:33;;;;;;;56.20;21.40;;;;;;;-3.72;95.46;100471.68;98957;1346;217202;-69
2021/12/12 05:37:24;;;;;;;46.40;18.20;;;;;;;-3.77;95.90;100476.25;99153;1348;59935;-69
2021/12/12 05:40:15;;;;;;;45.90;17.80;;;;;;;-3.82;95.89;100479.78;99988;1351;1003405;-71
2021/12/12 05:43:12;;;;;;;56.10;19.20;;;;;;;-3.87;96.02;100484.52;99301;1351;73570;-69
2021/12/12 05:46:03;;;;;;;47.20;17.30;;;;;;;-3.92;96.28;100487.16;100069;1342;68436;-72
2021/12/12 05:48:54;;;;;;;46.40;17.20;;;;;;;-3.97;96.17;100490.70;99742;1345;71731;-69
2021/12/12 05:51:44;;;;;;;38.70;15.40;;;;;;;-4.04;96.15;100498.74;100002;1339;60056;-70
2021/12/12 05:54:33;;;;;;;47.20;17.80;;;;;;;-4.13;96.43;100498.49;99486;1340;1003014;-69
2021/12/12 05:57:26;;;;;;;51.90;18.20;;;;;;;-4.20;96.94;100495.98;100085;1336;72543;-69
2021/12/12 06:00:16;;;;;;;67.70;23.50;;;;;;;-4.20;97.22;100489.90;100285;1340;66367;-70
2021/12/12 06:03:12;;;;;;;64.90;21.40;;;;;;;-4.17;97.66;100486.94;99936;1344;71739;-69
2021/12/12 06:06:08;;;;;;;53.30;19.10;;;;;;;-4.16;97.36;100488.65;100035;1337;59839;-69
2021/12/12 06:09:03;;;;;;;41.10;14.90;;;;;;;-4.15;97.58;100486.73;100063;1343;60828;-70
2021/12/12 06:11:53;;;;;;;47.00;17.20;;;;;;;-4.16;97.86;100487.09;100136;1337;73440;-70
2021/12/12 06:14:44;;;;;;;43.60;15.70;;;;;;;-4.18;98.24;100484.69;100136;1336;68067;-70
2021/12/12 06:17:35;;;;;;;39.40;13.70;;;;;;;-4.22;98.59;100489.76;99860;1340;73273;-69
2021/12/12 06:20:28;;;;;;;44.40;16.00;;;;;;;-4.22;99.05;100492.70;99822;1340;59786;-69
2021/12/12 06:23:20;;;;;;;59.40;19.40;;;;;;;-4.22;99.41;100492.71;99845;1342;61205;-69
2021/12/12 06:26:10;;;;;;;59.20;18.70;;;;;;;-4.20;99.55;100494.23;100147;1337;72544;-70
2021/12/12 06:28:59;;;;;;;51.10;16.70;;;;;;;-4.17;99.95;100492.47;99956;1336;67200;-69
2021/12/12 06:31:52;;;;;;;42.60;16.10;;;;;;;-4.12;100.00;100490.69;99990;1339;71970;-69
2021/12/12 06:34:42;;;;;;;42.40;16.10;;;;;;;-4.07;100.00;100487.34;100345;1336;59841;-69
2021/12/12 06:37:32;;;;;;;45.20;16.60;;;;;;;-4.03;100.00;100487.30;100322;1343;59663;-70
2021/12/12 06:40:21;;;;;;;52.90;19.40;;;;;;;-3.98;100.00;100489.33;99883;1336;73419;-69
2021/12/12 06:43:16;;;;;;;50.70;17.60;;;;;;;-3.89;100.00;100483.84;99911;1339;68435;-69
2021/12/12 06:46:06;;;;;;;58.40;20.00;;;;;;;-3.79;100.00;100486.52;100034;1343;71897;-68
2021/12/12 06:48:58;;;;;;;43.90;15.30;;;;;;;-3.69;100.00;100488.64;99326;1339;1004010;-69
2021/12/12 06:51:55;;;;;;;54.90;20.20;;;;;;;-3.58;100.00;100492.67;100158;1343;59745;-71
2021/12/12 06:54:46;;;;;;;41.70;15.40;;;;;;;-3.48;100.00;100489.07;99169;1344;1003579;-69
2021/12/12 06:57:34;;;;;;;53.70;19.10;;;;;;;-3.40;100.00;100490.88;100192;1337;66066;-70
2021/12/12 07:00:27;;;;;;;61.30;23.50;;;;;;;-3.33;100.00;100494.09;100147;1343;72817;-69
2021/12/12 07:03:20;;;;;;;55.30;17.70;;;;;;;-3.28;100.00;100499.55;100157;1336;60193;-69
2021/12/12 07:06:08;;;;;;;52.00;19.00;;;;;;;-3.22;100.00;100499.11;100184;1336;60471;-71
2021/12/12 07:09:01;;;;;;;46.00;15.70;;;;;;;-3.16;100.00;100504.42;99924;1333;71413;-69
2021/12/12 07:11:50;;;;;;;35.90;13.80;;;;;;;-3.13;100.00;100509.06;99688;1344;1003382;-70
2021/12/12 07:14:40;;;;;;;62.20;20.50;;;;;;;-3.10;100.00;100508.52;100186;1340;71924;-69
2021/12/12 07:17:30;;;;;;;57.00;19.90;;;;;;;-3.06;100.00;100513.14;99925;1340;59812;-70
2021/12/12 07:20:20;;;;;;;56.60;19.80;;;;;;;-3.01;100.00;100516.53;100295;1336;59603;-70
2021/12/12 07:23:12;;;;;;;42.80;16.10;;;;;;;-2.96;99.71;100519.59;100162;1339;74009;-70
2021/12/12 07:26:04;;;;;;;44.20;17.20;;;;;;;-2.95;99.18;100520.80;100136;1339;65435;-72
2021/12/12 07:28:58;;;;;;;48.80;18.50;;;;;;;-2.96;99.04;100521.34;100118;1337;72172;-69
2021/12/12 07:31:48;;;;;;;46.80;17.30;;;;;;;-2.96;99.03;100524.11;99962;1337;59683;-69
2021/12/12 07:34:38;;;;;;;52.40;18.70;;;;;;;-2.94;98.70;100526.52;99954;1344;59756;-70
2021/12/12 07:37:29;;;;;;;45.00;16.50;;;;;;;-2.93;98.80;100529.97;100181;1337;72212;-70
2021/12/12 07:40:20;;;;;;;49.00;18.50;;;;;;;-2.94;98.30;100533.11;99885;1345;67136;-70
2021/12/12 07:43:10;;;;;;;52.50;18.70;;;;;;;-2.93;98.25;100529.63;100440;1343;70718;-70
2021/12/12 07:46:01;;;;;;;48.80;17.60;;;;;;;-2.94;97.95;100540.73;100152;1337;60158;-71
2021/12/12 07:48:52;;;;;;;51.00;20.80;;;;;;;-2.95;97.42;100542.67;100303;1340;59783;-70
2021/12/12 07:51:42;;;;;;;39.90;14.60;;;;;;;-2.94;97.45;100547.87;100042;1339;70808;-70
2021/12/12 07:54:34;;;;;;;49.30;18.80;;;;;;;-2.92;97.22;100549.41;100159;1336;67014;-70
2021/12/12 07:57:27;;;;;;;42.40;15.60;;;;;;;-2.88;97.24;100551.95;99996;1343;71918;-71
2021/12/12 08:00:22;;;;;;;54.50;20.80;;;;;;;-2.85;97.08;100556.95;100058;1337;59761;-70
2021/12/12 08:03:15;;;;;;;54.00;21.60;;;;;;;-2.83;97.02;100555.70;100002;1340;59772;-69
2021/12/12 08:06:10;;;;;;;53.50;19.40;;;;;;;-2.78;96.88;100558.74;100222;1340;73595;-70
2021/12/12 08:08:59;;;;;;;42.90;15.90;;;;;;;-2.74;96.25;100552.27;99887;1339;68713;-71
2021/12/12 08:11:48;;;;;;;45.30;18.30;;;;;;;-2.72;96.03;100551.02;99936;1337;72910;-69
2021/12/12 08:14:38;;;;;;;46.00;18.30;;;;;;;-2.71;96.18;100557.61;100134;1337;59875;-70
2021/12/12 08:17:28;;;;;;;45.90;17.00;;;;;;;-2.68;96.24;100558.79;99254;1336;1003044;-69
2021/12/12 08:20:18;;;;;;;53.60;18.90;;;;;;;-2.65;96.16;100559.77;100160;1337;73479;-70
2021/12/12 08:23:08;;;;;;;52.50;21.30;;;;;;;-2.59;96.33;100567.16;100187;1340;68506;-71
2021/12/12 08:25:58;;;;;;;47.30;18.50;;;;;;;-2.53;96.05;100579.04;100149;1339;74683;-70
2021/12/12 08:28:47;;;;;;;49.00;18.60;;;;;;;-2.47;96.35;100574.09;99918;1343;59732;-70
2021/12/12 08:31:38;;;;;;;50.90;19.60;;;;;;;-2.41;95.91;100573.81;99844;1340;60979;-70
2021/12/12 08:34:27;;;;;;;46.80;19.80;;;;;;;-2.44;95.46;100569.35;100185;1336;73541;-71
2021/12/12 08:37:18;;;;;;;50.60;18.50;;;;;;;-2.45;95.57;100569.52;99942;1337;68336;-70
2021/12/12 08:40:09;;;;;;;51.10;19.00;;;;;;;-2.38;95.80;100572.73;100040;1340;73130;-71
2021/12/12 08:42:58;;;;;;;53.60;19.70;;;;;;;-2.32;95.35;100573.68;99773;1342;59787;-71
2021/12/12 08:45:56;;;;;;;46.90;17.90;;;;;;;-2.29;94.96;100575.88;100139;1342;59660;-71
2021/12/12 08:48:49;;;;;;;47.70;19.10;;;;;;;-2.25;95.18;100578.09;99808;1345;73191;-69
2021/12/12 08:52:19;;;;;;;43.40;16.50;;;;;;;-2.22;95.18;100575.77;99379;1343;1003935;-70
2021/12/12 08:55:18;;;;;;;56.40;21.10;;;;;;;-2.26;94.52;100570.10;99725;1339;71800;-71
2021/12/12 08:58:17;;;;;;;37.60;14.30;;;;;;;-2.29;94.68;100575.02;99790;1339;60241;-70
2021/12/12 09:01:13;;;;;;;56.30;23.30;;;;;;;-2.33;94.95;100572.64;99785;1342;60646;-69
2021/12/12 09:04:03;;;;;;;52.70;20.20;;;;;;;-2.32;95.02;100571.94;100191;1340;73633;-70
2021/12/12 09:07:40;;;;;;;50.30;19.20;;;;;;;-2.33;95.16;100577.69;99977;1342;68990;-69
2021/12/12 09:10:44;;;;;;;68.90;22.90;;;;;;;-2.35;95.10;100577.38;99852;1339;74755;-70
2021/12/12 09:13:49;;;;;;;54.30;21.00;;;;;;;-2.33;95.46;100578.39;99255;1337;1003332;-71
2021/12/12 09:16:46;;;;;;;54.00;22.00;;;;;;;-2.31;95.28;100574.17;100049;1343;61782;-69
2021/12/12 09:20:15;;;;;;;40.30;14.40;;;;;;;-2.29;95.29;100576.23;100378;1337;73445;-71
2021/12/12 09:23:11;;;;;;;52.40;19.60;;;;;;;-2.32;95.17;100570.37;99478;1336;1002876;-70
2021/12/12 09:26:24;;;;;;;46.00;17.20;;;;;;;-2.31;95.12;100575.75;100084;1336;71961;-71
2021/12/12 09:29:29;;;;;;;47.60;18.60;;;;;;;-2.29;95.40;100581.63;100371;1336;59742;-70
2021/12/12 09:32:52;;;;;;;55.20;19.90;;;;;;;-2.22;95.41;100584.98;100014;1336;60715;-69
2021/12/12 09:35:52;;;;;;;55.60;20.40;;;;;;;-2.12;95.55;100576.65;99135;1346;1003084;-70
2021/12/12 09:39:06;;;;;;;46.90;16.40;;;;;;;-2.05;95.31;100577.05;99514;1345;68361;-71
2021/12/12 09:42:04;;;;;;;54.00;21.30;;;;;;;-2.02;95.00;100571.60;99726;1345;71605;-71
2021/12/12 09:45:07;;;;;;;64.20;23.20;;;;;;;-1.99;94.91;100574.87;100013;1349;59929;-71
2021/12/12 09:52:01;;;;;;;52.60;19.50;;;;;;;-1.87;94.59;100563.34;99887;1342;71301;-71
2021/12/12 09:55:11;;;;;;;44.50;17.70;;;;;;;-1.87;94.44;100570.11;99420;1349;68742;-71
2021/12/12 09:58:44;;;;;;;43.70;16.00;;;;;;;-1.90;94.58;100567.40;99868;1342;71679;-71
2021/12/12 10:01:56;;;;;;;37.00;13.40;;;;;;;-1.89;94.70;100576.77;99530;1349;59790;-70
2021/12/12 10:05:16;;;;;;;48.20;19.80;;;;;;;-1.84;94.84;100573.38;100031;1346;61172;-70
2021/12/12 10:08:12;;;;;;;40.30;16.30;;;;;;;-1.78;94.75;100576.21;99857;1342;72131;-71
2021/12/12 10:11:17;;;;;;;44.80;18.20;;;;;;;-1.73;94.93;100575.95;99603;1343;68496;-70
2021/12/12 10:14:34;;;;;;;38.20;15.70;;;;;;;-1.71;94.67;100575.39;99918;1340;73326;-71
2021/12/12 10:17:56;;;;;;;49.90;18.10;;;;;;;-1.75;95.03;100572.50;100034;1336;59765;-71
2021/12/12 10:21:13;;;;;;;57.70;22.20;;;;;;;-1.71;95.40;100572.95;100577;1337;60730;-71
2021/12/12 10:24:25;;;;;;;46.30;18.10;;;;;;;-1.68;95.03;100573.41;100388;1340;74167;-71
2021/12/12 10:27:40;;;;;;;47.30;18.90;;;;;;;-1.68;95.14;100571.52;100344;1336;68247;-72
2021/12/12 10:30:50;;;;;;;47.50;20.10;;;;;;;-1.70;95.16;100570.31;100355;1342;73780;-73
2021/12/12 10:33:53;;;;;;;50.80;19.70;;;;;;;-1.67;95.64;100573.23;100203;1344;59686;-70
2021/12/12 10:36:58;;;;;;;51.90;22.20;;;;;;;-1.66;95.40;100573.55;100455;1342;60778;-72
2021/12/12 10:39:57;;;;;;;44.60;18.00;;;;;;;-1.62;95.48;100573.48;100313;1340;73222;-74
2021/12/12 10:42:55;;;;;;;49.20;17.90;;;;;;;-1.58;95.60;100572.52;100513;1343;69507;-74
2021/12/12 10:45:52;;;;;;;43.40;16.90;;;;;;;-1.53;95.60;100570.16;99961;1337;71741;-72
2021/12/12 10:48:58;;;;;;;45.60;18.10;;;;;;;-1.48;95.61;100572.52;100139;1343;59741;-72
2021/12/12 10:52:02;;;;;;;58.60;23.70;;;;;;;-1.46;95.38;100574.04;100271;1336;59721;-72
2021/12/12 10:55:09;;;;;;;47.20;18.80;;;;;;;-1.42;95.44;100570.99;100319;1336;72434;-71
2021/12/12 10:58:20;;;;;;;49.40;19.80;;;;;;;-1.33;95.40;100572.39;100177;1340;68166;-70
2021/12/12 11:01:18;;;;;;;48.80;19.50;;;;;;;-1.17;95.12;100566.66;100305;1336;72214;-71
2021/12/12 11:04:33;;;;;;;43.40;18.80;;;;;;;-1.02;95.08;100569.81;100190;1334;59758;-72
2021/12/12 11:08:04;;;;;;;50.40;20.60;;;;;;;-0.88;94.23;100570.20;99988;1339;60642;-73
2021/12/12 11:11:29;;;;;;;61.60;22.90;;;;;;;-0.83;93.47;100570.44;99998;1340;73670;-71
2021/12/12 11:14:36;;;;;;;48.50;17.70;;;;;;;-0.80;93.83;100563.59;100188;1337;66210;-70
2021/12/12 11:17:59;;;;;;;47.00;20.00;;;;;;;-0.78;93.07;100567.89;100057;1340;70589;-71
2021/12/12 11:21:08;;;;;;;54.70;22.20;;;;;;;-0.84;93.07;100570.81;100226;1336;59727;-71
2021/12/12 11:24:14;;;;;;;53.20;21.00;;;;;;;-0.89;93.58;100573.20;99513;1339;1003169;-70
2021/12/12 11:27:14;;;;;;;49.60;21.00;;;;;;;-0.93;93.66;100575.89;99411;1339;1003279;-71
2021/12/12 11:30:35;;;;;;;59.50;23.30;;;;;;;-0.96;93.72;100571.42;100119;1337;68520;-72
2021/12/12 11:33:30;;;;;;;55.70;22.50;;;;;;;-0.97;93.73;100567.98;100340;1337;73139;-71
2021/12/12 11:36:37;;;;;;;59.40;25.40;;;;;;;-0.96;93.80;100572.47;99884;1343;59940;-72
2021/12/12 11:39:46;;;;;;;58.20;23.60;;;;;;;-0.91;94.12;100568.70;100129;1336;60260;-71
2021/12/12 11:43:02;;;;;;;58.80;23.50;;;;;;;-0.88;93.91;100570.02;100113;1344;73252;-73
2021/12/12 11:46:00;;;;;;;56.60;23.00;;;;;;;-0.82;94.25;100580.71;100163;1339;67579;-71
2021/12/12 11:49:01;;;;;;;50.70;21.30;;;;;;;-0.79;93.92;100581.17;100055;1344;73214;-71
2021/12/12 11:52:07;;;;;;;62.90;24.70;;;;;;;-0.80;93.44;100575.97;100336;1340;59990;-72
2021/12/12 11:55:19;;;;;;;56.90;23.60;;;;;;;-0.79;93.14;100579.25;100258;1339;59769;-71
2021/12/12 11:58:29;;;;;;;63.30;24.00;;;;;;;-0.75;93.10;100577.93;100209;1336;72183;-71
2021/12/12 12:01:47;;;;;;;60.00;22.10;;;;;;;-0.71;93.10;100580.28;100405;1343;67928;-71
2021/12/12 12:04:48;;;;;;;55.40;21.70;;;;;;;-0.70;92.79;100583.05;99636;1348;70322;-72
2021/12/12 12:08:07;;;;;;;55.30;22.10;;;;;;;-0.70;92.98;100580.44;99767;1346;60008;-70
2021/12/12 12:11:27;;;;;;;52.80;21.90;;;;;;;-0.65;93.09;100573.52;99739;1342;60067;-70
2021/12/12 12:14:46;;;;;;;57.90;21.90;;;;;;;-0.65;92.76;100570.39;99994;1342;72145;-71
2021/12/12 12:17:50;;;;;;;52.20;20.50;;;;;;;-0.63;92.87;100568.42;99955;1346;68305;-71
2021/12/12 12:21:08;;;;;;;56.80;21.90;;;;;;;-0.61;92.95;100571.35;99922;1346;71708;-70
2021/12/12 12:24:17;;;;;;;54.90;21.90;;;;;;;-0.52;92.93;100562.59;99554;1342;59857;-71
2021/12/12 12:27:30;;;;;;;54.70;20.80;;;;;;;-0.38;93.04;100564.86;99738;1346;61322;-70
2021/12/12 12:30:31;;;;;;;38.50;14.90;;;;;;;-0.23;92.89;100566.59;99927;1349;73469;-70
2021/12/12 12:34:21;;;;;;;43.40;17.40;;;;;;;-0.19;91.92;100564.05;99854;1342;65801;-70
2021/12/12 12:38:07;;;;;;;55.40;21.60;;;;;;;-0.26;91.37;100567.36;99323;1346;71723;-70
2021/12/12 12:41:33;;;;;;;52.80;18.00;;;;;;;-0.33;91.72;100568.23;99480;1346;59963;-70
2021/12/12 12:45:02;;;;;;;55.10;22.00;;;;;;;-0.37;91.73;100568.86;99560;1348;60850;-70
2021/12/12 12:48:12;;;;;;;44.30;17.90;;;;;;;-0.42;91.69;100569.68;99828;1349;72665;-70
2021/12/12 12:51:39;;;;;;;49.60;18.60;;;;;;;-0.44;92.21;100565.71;100147;1349;67461;-70
2021/12/12 12:55:11;;;;;;;50.60;19.90;;;;;;;-0.44;92.06;100574.08;99428;1348;71955;-69
2021/12/12 12:58:46;;;;;;;48.40;18.30;;;;;;;-0.45;92.15;100575.51;99331;1349;60024;-70
2021/12/12 13:01:35;;;;;;;47.90;18.60;;;;;;;-0.54;91.80;100575.53;99346;1354;59795;-70
2021/12/12 13:04:40;;;;;;;54.20;20.40;;;;;;;-0.63;92.09;100572.41;99966;1349;71979;-69
2021/12/12 13:07:41;;;;;;;51.10;20.60;;;;;;;-0.66;92.28;100573.73;99369;1352;66832;-70
2021/12/12 13:10:33;;;;;;;52.10;21.70;;;;;;;-0.67;92.63;100573.75;99392;1348;72978;-71
2021/12/12 13:13:30;;;;;;;47.40;20.50;;;;;;;-0.67;92.74;100573.76;99611;1351;60052;-70
2021/12/12 13:16:37;;;;;;;42.80;18.30;;;;;;;-0.67;92.64;100576.20;99506;1345;59657;-69
2021/12/12 13:20:12;;;;;;;46.10;18.90;;;;;;;-0.69;92.91;100577.44;99515;1345;70876;-69
2021/12/12 13:23:29;;;;;;;41.70;17.40;;;;;;;-0.72;93.12;100577.00;99391;1351;68102;-72
2021/12/12 13:26:53;;;;;;;59.20;21.80;;;;;;;-0.73;93.09;100575.09;98952;1345;1003186;-70
2021/12/12 13:30:12;;;;;;;55.40;21.70;;;;;;;-0.78;93.22;100575.90;99582;1340;59918;-70
2021/12/12 13:33:11;;;;;;;60.90;22.70;;;;;;;-0.79;93.38;100575.05;99939;1339;269085;-71
2021/12/12 13:36:32;;;;;;;56.10;22.10;;;;;;;-0.76;93.36;100578.65;100098;1337;73561;-70
2021/12/12 13:39:43;;;;;;;58.60;21.10;;;;;;;-0.75;93.28;100578.63;99908;1337;69574;-70
2021/12/12 13:42:53;;;;;;;56.80;21.80;;;;;;;-0.75;93.32;100578.81;100208;1336;73113;-70
2021/12/12 13:46:21;;;;;;;56.30;21.90;;;;;;;-0.79;93.11;100578.55;100238;1337;59815;-70
2021/12/12 13:49:41;;;;;;;54.40;21.30;;;;;;;-0.82;93.50;100588.38;100374;1339;59860;-71
2021/12/12 13:53:04;;;;;;;51.50;20.30;;;;;;;-0.88;93.56;100586.59;100358;1339;73702;-71
2021/12/12 13:56:30;;;;;;;55.90;21.50;;;;;;;-0.95;93.65;100585.34;100126;1340;67724;-69